createdAt,value
2023-04-15T00:02:14.651Z,99779.66
2023-04-15T00:07:16.408Z,99782.06
2023-04-15T00:12:22.423Z,99781.13
2023-04-15T00:17:26.926Z,99779.97
2023-04-15T00:22:30.668Z,99772.31
2023-04-15T00:27:33.602Z,99775.88
2023-04-15T00:32:38.106Z,99762.09
2023-04-15T00:37:45.928Z,99753.59
2023-04-15T00:42:49.220Z,99755.16
2023-04-15T00:47:55.252Z,99750.78
2023-04-15T00:52:57.021Z,99743.28
2023-04-15T00:58:09.625Z,99747.31
2023-04-15T01:03:11.439Z,99758.25
2023-04-15T01:08:13.203Z,99754.41
2023-04-15T01:13:16.133Z,99754.88
2023-04-15T01:18:18.013Z,99758.22
2023-04-15T01:23:20.124Z,99762.44
2023-04-15T01:28:27.445Z,99765.47
2023-04-15T01:33:31.501Z,99760.88
2023-04-15T01:38:33.362Z,99770.97
2023-04-15T01:43:37.770Z,99765.16
2023-04-15T01:48:39.788Z,99764.66
2023-04-15T01:53:41.442Z,99767.53
2023-04-15T01:58:45.055Z,99757.88
2023-04-15T02:03:47.108Z,99753.16
2023-04-15T02:08:50.271Z,99756.00
2023-04-15T02:13:55.706Z,99768.16
2023-04-15T02:18:57.302Z,99766.13
2023-04-15T02:23:58.956Z,99764.28
2023-04-15T02:29:02.077Z,99760.91
2023-04-15T02:34:05.662Z,99755.88
2023-04-15T02:39:09.889Z,99766.44
2023-04-15T02:44:12.928Z,99768.28
2023-04-15T02:49:14.723Z,99764.81
2023-04-15T02:54:20.339Z,99760.88
2023-04-15T02:59:23.689Z,99769.25
2023-04-15T03:04:27.232Z,99774.19
2023-04-15T03:09:36.611Z,99773.88
2023-04-15T03:14:43.126Z,99784.41
2023-04-15T03:19:44.843Z,99782.88
2023-04-15T03:24:50.087Z,99779.13
2023-04-15T03:29:53.234Z,99775.63
2023-04-15T03:34:58.929Z,99781.47
2023-04-15T03:40:02.612Z,99780.56
2023-04-15T03:45:09.690Z,99773.75
2023-04-15T03:50:14.064Z,99775.63
2023-04-15T03:55:23.842Z,99771.56
2023-04-15T04:00:26.831Z,99768.81
2023-04-15T04:05:28.477Z,99773.09
2023-04-15T04:10:33.239Z,99758.63
2023-04-15T04:15:37.820Z,99770.31
2023-04-15T04:20:39.554Z,99768.69
2023-04-15T04:25:44.275Z,99770.47
2023-04-15T04:30:49.895Z,99769.47
2023-04-15T04:35:51.482Z,99769.44
2023-04-15T04:40:53.067Z,99766.50
2023-04-15T04:45:56.085Z,99772.84
2023-04-15T04:50:57.848Z,99783.84
2023-04-15T04:55:59.478Z,99783.28
2023-04-15T05:01:02.505Z,99776.09
2023-04-15T05:06:04.243Z,99782.63
2023-04-15T05:11:05.915Z,99783.03
2023-04-15T05:16:11.639Z,99787.22
2023-04-15T05:21:15.220Z,99795.53
2023-04-15T05:26:16.883Z,99797.38
2023-04-15T05:31:23.049Z,99800.47
2023-04-15T05:36:24.657Z,99817.34
2023-04-15T05:41:28.807Z,99811.06
2023-04-15T05:46:34.689Z,99824.97
2023-04-15T05:51:36.769Z,99818.78
2023-04-15T05:56:43.017Z,99828.50
2023-04-15T06:01:48.572Z,99819.44
2023-04-15T06:06:51.932Z,99823.66
2023-04-15T06:11:53.530Z,99833.81
2023-04-15T06:16:57.988Z,99830.41
2023-04-15T06:21:59.644Z,99833.00
2023-04-15T06:27:07.186Z,99838.34
2023-04-15T06:32:13.394Z,99834.84
2023-04-15T06:37:16.796Z,99832.22
2023-04-15T06:42:21.222Z,99842.06
2023-04-15T06:47:26.089Z,99845.28
2023-04-15T06:52:27.744Z,99842.25
2023-04-15T06:57:29.693Z,99839.56
2023-04-15T07:02:32.847Z,99843.75
2023-04-15T07:07:34.635Z,99841.44
2023-04-15T07:12:36.294Z,99845.47
2023-04-15T07:17:41.909Z,99836.56
2023-04-15T07:22:43.602Z,99839.66
2023-04-15T07:27:45.273Z,99839.56
2023-04-15T07:32:52.214Z,99840.31
2023-04-15T07:37:56.868Z,99836.22
2023-04-15T07:42:58.567Z,99835.63
2023-04-15T07:48:04.805Z,99839.19
2023-04-15T07:53:07.000Z,99838.47
2023-04-15T07:58:11.110Z,99833.16
2023-04-15T08:03:17.305Z,99828.81
2023-04-15T08:08:18.999Z,99832.41
2023-04-15T08:13:20.633Z,99834.72
2023-04-15T08:18:26.293Z,99831.16
2023-04-15T08:23:27.897Z,99838.59
2023-04-15T08:28:32.656Z,99830.56
2023-04-15T08:33:38.224Z,99834.09
2023-04-15T08:38:39.889Z,99832.28
2023-04-15T08:43:51.926Z,99834.41
2023-04-15T08:49:03.394Z,99842.25
2023-04-15T08:54:10.456Z,99838.25
2023-04-15T08:59:12.129Z,99837.84
2023-04-15T09:04:15.201Z,99825.47
2023-04-15T09:09:19.467Z,99841.88
2023-04-15T09:14:24.048Z,99837.22
2023-04-15T09:19:31.757Z,99849.19
2023-04-15T09:24:37.449Z,99844.19
2023-04-15T09:29:44.289Z,99849.50
2023-04-15T09:34:49.214Z,99859.69
2023-04-15T09:39:51.971Z,99859.03
2023-04-15T09:44:53.903Z,99863.44
2023-04-15T09:49:57.700Z,99864.56
2023-04-15T09:55:02.877Z,99865.56
2023-04-15T10:00:13.760Z,99867.91
2023-04-15T10:05:20.682Z,99865.66
2023-04-15T10:10:25.697Z,99867.25
2023-04-15T10:15:29.956Z,99874.94
2023-04-15T10:20:33.873Z,99882.09
2023-04-15T10:25:47.221Z,99882.78
2023-04-15T10:30:51.382Z,99894.41
2023-04-15T10:35:57.800Z,99901.13
2023-04-15T10:41:12.657Z,99906.16
2023-04-15T10:46:14.699Z,99916.31
2023-04-15T10:51:31.620Z,99916.81
2023-04-15T10:56:35.989Z,99916.88
2023-04-15T11:01:56.810Z,99930.66
2023-04-15T11:07:06.925Z,99926.25
2023-04-15T11:12:15.135Z,99927.97
2023-04-15T11:17:27.382Z,99924.28
2023-04-15T11:22:30.428Z,99932.00
2023-04-15T11:27:37.709Z,99934.94
2023-04-15T11:32:55.668Z,99935.28
2023-04-15T11:38:02.498Z,99946.38
2023-04-15T11:43:10.020Z,99942.22
2023-04-15T11:48:14.272Z,99941.59
2023-04-15T11:53:18.744Z,99951.50
2023-04-15T11:58:24.000Z,99958.22
2023-04-15T12:03:29.823Z,99966.41
2023-04-15T12:09:14.322Z,99975.66
2023-04-15T12:14:24.707Z,99999.22
2023-04-15T12:19:30.599Z,99997.50
2023-04-15T12:24:33.055Z,100015.84
2023-04-15T12:29:41.306Z,100020.78
2023-04-15T12:34:52.078Z,100022.50
2023-04-15T12:39:53.789Z,100033.59
2023-04-15T12:44:58.068Z,100035.72
2023-04-15T12:50:02.817Z,100038.09
2023-04-15T12:55:07.805Z,100040.50
2023-04-15T13:00:14.911Z,100044.91
2023-04-15T13:05:20.166Z,100060.03
2023-04-15T13:10:21.947Z,100071.31
2023-04-15T13:15:29.654Z,100074.81
2023-04-15T13:20:35.176Z,100084.00
2023-04-15T13:25:38.652Z,100086.19
2023-04-15T13:30:41.760Z,100096.50
2023-04-15T13:35:47.544Z,100115.97
2023-04-15T13:40:49.151Z,100115.69
2023-04-15T13:45:52.203Z,100123.25
2023-04-15T13:51:00.349Z,100128.75
2023-04-15T13:56:02.139Z,100125.28
2023-04-15T14:01:07.737Z,100145.53
2023-04-15T14:06:16.855Z,100134.69
2023-04-15T14:11:21.329Z,100143.78
2023-04-15T14:16:24.552Z,100153.47
2023-04-15T14:21:33.721Z,100153.88
2023-04-15T14:26:35.401Z,100154.19
2023-04-15T14:31:40.308Z,100156.47
2023-04-15T14:36:44.896Z,100162.97
2023-04-15T14:41:51.324Z,100161.44
2023-04-15T14:46:54.368Z,100172.22
2023-04-15T14:51:57.886Z,100181.75
2023-04-15T14:56:59.575Z,100182.66
2023-04-15T15:02:10.484Z,100188.72
2023-04-15T15:07:16.913Z,100201.25
2023-04-15T15:12:23.802Z,100206.31
2023-04-15T15:17:28.167Z,100210.38
2023-04-15T15:22:31.522Z,100223.81
2023-04-15T15:27:51.045Z,100225.16
2023-04-15T15:32:57.126Z,100239.59
2023-04-15T15:37:59.736Z,100245.06
2023-04-15T15:43:04.086Z,100257.63
2023-04-15T15:48:10.930Z,100259.31
2023-04-15T15:53:15.783Z,100269.72
2023-04-15T15:58:17.869Z,100271.84
2023-04-15T16:03:23.630Z,100281.69
2023-04-15T16:08:31.511Z,100265.22
2023-04-15T16:13:34.873Z,100273.16
2023-04-15T16:18:38.184Z,100296.91
2023-04-15T16:23:44.862Z,100287.50
2023-04-15T16:28:46.549Z,100297.81
2023-04-15T16:33:49.604Z,100306.72
2023-04-15T16:38:54.009Z,100307.25
2023-04-15T16:43:58.598Z,100315.94
2023-04-15T16:49:06.561Z,100321.63
2023-04-15T16:54:08.653Z,100327.44
2023-04-15T16:59:11.807Z,100327.31
2023-04-15T17:04:20.352Z,100340.34
2023-04-15T17:09:27.777Z,100341.94
2023-04-15T17:14:32.555Z,100343.47
2023-04-15T17:19:35.583Z,100351.19
2023-04-15T17:24:40.162Z,100348.53
2023-04-15T17:29:44.294Z,100365.50
2023-04-15T17:34:57.179Z,100360.47
2023-04-15T17:39:58.887Z,100362.38
2023-04-15T17:45:00.572Z,100369.13
2023-04-15T17:50:03.828Z,100379.28
2023-04-15T17:55:07.226Z,100382.88
2023-04-15T18:00:22.429Z,100392.28
2023-04-15T18:05:33.810Z,100408.38
2023-04-15T18:10:35.948Z,100397.31
2023-04-15T18:15:39.305Z,100426.13
2023-04-15T18:20:45.539Z,100437.56
2023-04-15T18:25:50.749Z,100449.19
2023-04-15T18:30:52.386Z,100454.59
2023-04-15T18:35:58.468Z,100462.31
2023-04-15T18:41:05.074Z,100473.25
2023-04-15T18:46:07.207Z,100475.59
2023-04-15T18:51:16.404Z,100482.16
2023-04-15T18:56:23.799Z,100485.88
2023-04-15T19:01:25.550Z,100502.75
2023-04-15T19:06:41.007Z,100500.69
2023-04-15T19:11:48.902Z,100504.25
2023-04-15T19:16:59.723Z,100515.22
2023-04-15T19:22:02.938Z,100516.00
2023-04-15T19:27:04.663Z,100526.44
2023-04-15T19:32:09.260Z,100524.34
2023-04-15T19:37:17.940Z,100521.13
2023-04-15T19:42:19.557Z,100525.75
2023-04-15T19:47:21.375Z,100532.97
2023-04-15T19:52:24.419Z,100530.91
2023-04-15T19:57:26.183Z,100537.09
2023-04-15T20:02:29.118Z,100534.41
2023-04-15T20:07:32.214Z,100545.09
2023-04-15T20:12:51.301Z,100548.94
2023-04-15T20:17:56.545Z,100545.72
2023-04-15T20:23:02.663Z,100536.19
2023-04-15T20:28:06.968Z,100546.47
2023-04-15T20:33:13.701Z,100553.94
2023-04-15T20:38:16.886Z,100549.69
2023-04-15T20:43:18.540Z,100559.22
2023-04-15T20:48:20.185Z,100566.47
2023-04-15T20:53:24.379Z,100558.84
2023-04-15T20:58:28.968Z,100570.03
2023-04-15T21:03:30.894Z,100575.03
2023-04-15T21:08:34.044Z,100569.91
2023-04-15T21:13:38.478Z,100572.38
2023-04-15T21:18:44.570Z,100573.66
2023-04-15T21:23:47.626Z,100580.72
2023-04-15T21:28:49.666Z,100579.44
2023-04-15T21:33:54.088Z,100590.50
2023-04-15T21:39:02.171Z,100593.38
2023-04-15T21:44:06.038Z,100602.00
2023-04-15T21:49:08.267Z,100606.09
2023-04-15T21:54:12.853Z,100605.97
2023-04-15T21:59:16.217Z,100621.19
2023-04-15T22:04:17.958Z,100617.06
2023-04-15T22:09:24.085Z,100624.28
2023-04-15T22:14:25.809Z,100630.06
2023-04-15T22:19:27.492Z,100636.66
2023-04-15T22:24:39.976Z,100637.66
2023-04-15T22:29:42.290Z,100638.19
2023-04-15T22:34:43.928Z,100657.00
2023-04-15T22:39:49.824Z,100666.75
2023-04-15T22:44:57.663Z,100676.66
2023-04-15T22:50:10.297Z,100681.19
2023-04-15T22:55:16.551Z,100682.22
2023-04-15T23:00:23.851Z,100684.38
2023-04-15T23:05:25.685Z,100690.06
2023-04-15T23:10:31.473Z,100684.66
2023-04-15T23:15:38.877Z,100685.56
2023-04-15T23:20:44.954Z,100705.75
2023-04-15T23:25:50.567Z,100706.16
2023-04-15T23:30:52.265Z,100698.81
2023-04-15T23:35:57.001Z,100708.47
2023-04-15T23:41:01.711Z,100718.53
2023-04-15T23:46:03.484Z,100719.94
2023-04-15T23:51:07.643Z,100713.25
2023-04-15T23:56:12.632Z,100715.06
